Time;durP1;ratioP1;P1;durP2;ratioP2;P2;SDS_P1;SDS_P2;PMS_P1;PMS_P2;Temp;Humidity;BMP_temperature;BMP_pressure;BME280_temperature;BME280_humidity;BME280_pressure;Samples;Min_cycle;Max_cycle;Signal;HPM_P1;HPM_P2
2023/01/26 00:02:03;;;;;;;7.43;4.40;;;;;;;6.26;67.08;101152.25;5049090;28;20045;-74
2023/01/26 00:04:30;;;;;;;9.13;4.47;;;;;;;6.16;68.11;101135.72;5051817;28;20060;-74
2023/01/26 00:06:58;;;;;;;7.75;5.10;;;;;;;6.23;68.46;101141.03;5052016;28;20506;-74
2023/01/26 00:09:26;;;;;;;7.45;4.53;;;;;;;6.35;66.62;101138.31;5052192;28;20395;-73
2023/01/26 00:11:53;;;;;;;9.18;5.45;;;;;;;6.39;67.10;101129.44;5051668;28;20059;-73
2023/01/26 00:14:21;;;;;;;7.60;4.05;;;;;;;6.34;66.62;101128.50;5051733;28;20047;-73
2023/01/26 00:16:49;;;;;;;8.45;4.00;;;;;;;6.24;67.33;101121.78;5051825;28;20041;-74
2023/01/26 00:19:17;;;;;;;8.38;5.22;;;;;;;6.08;67.77;101115.16;5052026;28;20041;-74
2023/01/26 00:21:45;;;;;;;7.55;4.30;;;;;;;6.03;68.04;101110.41;5050716;28;20049;-74
2023/01/26 00:24:12;;;;;;;8.27;4.93;;;;;;;6.02;67.47;101108.78;5051285;28;20072;-74
2023/01/26 00:26:40;;;;;;;9.10;4.43;;;;;;;6.12;67.09;101105.44;5050561;28;20045;-73
2023/01/26 00:29:08;;;;;;;8.48;3.92;;;;;;;6.17;67.34;101105.56;5050484;28;20510;-73
2023/01/26 00:31:36;;;;;;;8.35;4.28;;;;;;;6.20;67.12;101108.91;5050567;28;20049;-74
2023/01/26 00:34:04;;;;;;;11.77;4.95;;;;;;;6.10;67.16;101107.59;5051177;28;20060;-74
2023/01/26 00:36:32;;;;;;;8.40;4.50;;;;;;;6.17;65.78;101091.19;5050029;28;20037;-74
2023/01/26 00:39:01;;;;;;;6.57;3.88;;;;;;;6.12;66.86;101101.94;5050409;28;20049;-74
2023/01/26 00:44:15;;;;;;;6.63;4.15;;;;;;;6.11;67.15;101100.28;5051560;28;20056;-74
2023/01/26 00:46:43;;;;;;;11.32;5.05;;;;;;;6.09;66.86;101092.34;5033394;28;20796;-74
2023/01/26 00:49:10;;;;;;;6.60;3.83;;;;;;;6.01;66.22;101087.25;5051571;28;20480;-74
2023/01/26 00:51:38;;;;;;;11.93;4.70;;;;;;;5.94;68.51;101083.81;5050533;28;20045;-73
2023/01/26 00:54:06;;;;;;;7.85;4.05;;;;;;;5.94;67.30;101089.25;5051186;28;20045;-74
2023/01/26 00:56:34;;;;;;;10.40;5.00;;;;;;;5.89;67.64;101082.66;5050228;28;20115;-74
2023/01/26 00:59:02;;;;;;;7.03;4.43;;;;;;;5.92;67.16;101084.88;5050363;28;20056;-74
2023/01/26 01:01:31;;;;;;;7.57;3.97;;;;;;;6.00;67.16;101088.31;5051539;28;20499;-74
2023/01/26 01:03:58;;;;;;;9.75;4.50;;;;;;;5.91;67.33;101088.66;5051078;28;20045;-74
2023/01/26 01:06:26;;;;;;;9.90;5.00;;;;;;;5.98;68.53;101085.84;5050322;28;20040;-73
2023/01/26 01:08:54;;;;;;;10.27;4.32;;;;;;;5.96;67.54;101081.72;5050337;28;20040;-74
2023/01/26 01:11:22;;;;;;;9.25;4.75;;;;;;;6.02;68.21;101078.03;5034029;28;20045;-74
2023/01/26 01:13:50;;;;;;;7.05;4.15;;;;;;;6.11;67.13;101082.06;5052675;28;20056;-74
2023/01/26 01:16:18;;;;;;;12.20;4.53;;;;;;;6.14;67.98;101081.59;5053666;28;20044;-74
2023/01/26 01:18:46;;;;;;;9.35;4.10;;;;;;;5.98;69.12;101077.69;5054896;28;20045;-74
2023/01/26 01:21:16;;;;;;;8.43;4.50;;;;;;;6.18;68.24;101081.94;5054785;28;20491;-74
2023/01/26 01:23:43;;;;;;;7.20;4.70;;;;;;;6.13;67.48;101090.81;5054711;28;20380;-74
2023/01/26 01:26:13;;;;;;;7.35;4.00;;;;;;;6.05;68.79;101077.59;5054589;28;20052;-73
2023/01/26 01:28:42;;;;;;;9.70;4.45;;;;;;;5.99;68.93;101078.50;5053632;28;20041;-74
2023/01/26 01:31:13;;;;;;;11.13;4.07;;;;;;;5.94;70.12;101079.22;5053713;28;20814;-73
2023/01/26 01:33:41;;;;;;;8.23;3.92;;;;;;;6.08;70.04;101073.56;5054503;28;20048;-74
2023/01/26 01:36:12;;;;;;;9.48;3.88;;;;;;;5.81;69.01;101077.56;5053511;28;20044;-73
2023/01/26 01:38:42;;;;;;;6.18;3.70;;;;;;;5.94;68.13;101081.09;5069192;28;20060;-74
2023/01/26 01:41:10;;;;;;;7.68;3.60;;;;;;;5.85;67.92;101070.59;5039974;28;20048;-74
2023/01/26 01:43:38;;;;;;;6.18;3.88;;;;;;;5.84;68.79;101063.50;5074333;28;20048;-74
2023/01/26 01:46:34;;;;;;;9.48;4.55;;;;;;;5.96;68.50;101065.41;5074461;28;20483;-73
2023/01/26 01:49:14;;;;;;;5.28;3.67;;;;;;;5.86;67.33;101061.38;5067270;28;20056;-74
2023/01/26 01:51:47;;;;;;;6.88;4.53;;;;;;;5.81;67.57;101055.81;5074416;28;20048;-74
2023/01/26 01:54:20;;;;;;;7.13;3.75;;;;;;;5.64;67.87;101053.81;5074145;28;20064;-73
2023/01/26 01:56:54;;;;;;;8.20;4.35;;;;;;;5.60;66.93;101047.22;5056203;28;20045;-74
2023/01/26 01:59:24;;;;;;;6.82;3.67;;;;;;;5.72;67.43;101044.47;5040046;28;20051;-73
2023/01/26 02:01:52;;;;;;;8.07;3.92;;;;;;;5.91;67.70;101037.06;5056490;28;20047;-74
2023/01/26 02:04:21;;;;;;;8.00;4.28;;;;;;;5.81;67.35;101042.25;5073659;28;20056;-73
2023/01/26 02:06:52;;;;;;;9.05;5.18;;;;;;;5.80;66.84;101037.88;5073763;28;20044;-73
2023/01/26 02:12:15;;;;;;;7.32;4.18;;;;;;;5.76;67.09;101051.09;5036183;28;20048;-73
2023/01/26 02:14:43;;;;;;;10.80;4.50;;;;;;;5.76;66.63;101042.13;5059252;28;20049;-74
2023/01/26 02:17:11;;;;;;;8.93;4.32;;;;;;;5.78;66.84;101026.44;5073765;28;20491;-74
2023/01/26 02:19:45;;;;;;;7.25;4.80;;;;;;;5.71;66.65;101033.88;5039605;28;20063;-73
2023/01/26 02:22:47;;;;;;;6.90;3.80;;;;;;;5.75;67.41;101035.03;5073555;28;20484;-73
2023/01/26 02:25:31;;;;;;;6.22;3.90;;;;;;;5.71;67.52;101037.41;5036109;28;20056;-73
2023/01/26 02:28:00;;;;;;;7.53;4.15;;;;;;;5.69;66.63;101030.56;5039105;28;20048;-73
2023/01/26 02:30:28;;;;;;;8.23;3.45;;;;;;;5.68;66.63;101026.19;5073757;28;20048;-73
2023/01/26 02:32:56;;;;;;;8.63;4.32;;;;;;;5.68;67.55;101021.59;5055785;28;20398;-73
2023/01/26 02:35:25;;;;;;;6.53;4.28;;;;;;;5.83;66.20;101014.84;5073119;28;20402;-74
2023/01/26 02:37:53;;;;;;;9.90;4.18;;;;;;;5.83;66.50;101020.28;5039086;28;20066;-74
2023/01/26 02:40:32;;;;;;;9.27;4.22;;;;;;;5.75;67.05;101010.59;5073445;28;20055;-73
2023/01/26 02:43:01;;;;;;;8.60;4.70;;;;;;;5.75;67.66;101005.16;5055617;28;20040;-73
2023/01/26 02:45:30;;;;;;;7.93;4.45;;;;;;;5.67;67.88;101008.25;5072999;28;20045;-73
2023/01/26 02:48:03;;;;;;;9.68;4.05;;;;;;;5.63;69.14;101010.63;5055447;28;20044;-74
2023/01/26 02:50:31;;;;;;;9.25;4.68;;;;;;;5.79;67.71;101001.72;5073409;28;20041;-73
2023/01/26 02:53:00;;;;;;;9.27;4.30;;;;;;;5.82;67.19;100996.91;5055239;28;20044;-73
2023/01/26 02:55:29;;;;;;;7.07;3.92;;;;;;;5.75;67.24;100999.72;5072801;28;20048;-73
2023/01/26 02:58:00;;;;;;;10.23;4.65;;;;;;;5.71;67.54;100982.28;5072914;28;20053;-73
2023/01/26 03:00:40;;;;;;;7.72;3.38;;;;;;;5.68;67.18;100986.31;5055349;28;20040;-73
2023/01/26 03:03:23;;;;;;;8.15;3.85;;;;;;;5.44;67.33;100993.59;5072998;28;20048;-73
2023/01/26 03:05:51;;;;;;;9.48;4.20;;;;;;;5.56;67.71;100991.72;5072529;28;20048;-73
2023/01/26 03:08:19;;;;;;;8.90;3.95;;;;;;;5.54;67.41;100988.41;5055090;28;20371;-74
2023/01/26 03:10:47;;;;;;;7.82;3.97;;;;;;;5.58;67.24;100981.44;5072921;28;20048;-74
2023/01/26 03:13:17;;;;;;;4.85;3.67;;;;;;;5.73;67.27;100980.16;5054758;28;20056;-74
2023/01/26 03:15:53;;;;;;;8.27;4.03;;;;;;;5.84;67.71;100973.03;5054566;28;20479;-74
2023/01/26 03:29:33;;;;;;;8.45;4.20;;;;;;;5.80;69.00;100961.84;5054893;28;20036;-74
2023/01/26 03:32:02;;;;;;;6.93;3.53;;;;;;;5.59;68.56;100958.69;5054759;28;20048;-74
2023/01/26 03:34:30;;;;;;;8.02;4.00;;;;;;;5.71;68.83;100949.69;5054316;28;20515;-73
2023/01/26 03:36:58;;;;;;;8.38;4.13;;;;;;;5.73;68.74;100955.72;5053530;28;20502;-73
2023/01/26 03:56:31;;;;;;;6.93;3.97;;;;;;;5.89;68.25;100949.53;5053754;28;20049;-74
2023/01/26 03:59:08;;;;;;;;;;;;;;;5.71;67.48;100946.97;5054805;28;20036;-74
2023/01/26 04:01:41;;;;;;;8.32;3.42;;;;;;;5.67;67.72;100937.66;5054232;28;19920;-74
2023/01/26 04:09:49;;;;;;;7.13;3.50;;;;;;;5.70;67.34;100923.59;5053958;28;20056;-74
2023/01/26 04:12:17;;;;;;;6.35;4.13;;;;;;;5.46;67.69;100932.59;5054098;28;20044;-74
2023/01/26 04:23:18;;;;;;;9.68;3.60;;;;;;;5.45;69.00;100920.09;5054130;28;20048;-74
2023/01/26 04:25:47;;;;;;;11.73;4.18;;;;;;;5.31;68.63;100907.81;5053677;28;20040;-74
2023/01/26 04:28:16;;;;;;;8.20;4.15;;;;;;;5.32;69.24;100895.91;5037562;28;20047;-74
2023/01/26 04:30:45;;;;;;;10.57;4.70;;;;;;;5.44;69.46;100891.28;5054023;28;20044;-73
2023/01/26 04:33:13;;;;;;;7.70;3.70;;;;;;;5.33;68.76;100894.84;5054040;28;20041;-73
2023/01/26 04:35:41;;;;;;;8.02;3.97;;;;;;;5.25;69.73;100891.41;5037149;28;20040;-74
2023/01/26 04:38:08;;;;;;;8.88;4.07;;;;;;;5.19;69.55;100886.09;5071530;28;20047;-73
2023/01/26 04:40:38;;;;;;;8.73;4.65;;;;;;;5.41;68.93;100880.91;5037397;28;20049;-74
2023/01/26 04:43:06;;;;;;;9.30;3.88;;;;;;;5.27;69.64;100884.94;5071805;28;20051;-73
2023/01/26 04:45:34;;;;;;;8.98;4.25;;;;;;;5.29;69.95;100880.91;5036541;28;20056;-74
2023/01/26 04:48:02;;;;;;;6.93;3.70;;;;;;;5.38;70.87;100882.19;5055962;28;20049;-73
2023/01/26 04:50:30;;;;;;;8.10;4.07;;;;;;;5.32;69.38;100882.34;5057833;28;20059;-74
2023/01/26 04:52:59;;;;;;;6.60;3.70;;;;;;;5.27;69.15;100883.03;5057830;28;20494;-74
2023/01/26 04:55:26;;;;;;;8.85;3.63;;;;;;;5.21;68.48;100875.84;5057371;28;20052;-74
2023/01/26 04:57:56;;;;;;;7.60;4.45;;;;;;;5.26;69.71;100884.09;5057527;28;20044;-74
2023/01/26 05:00:24;;;;;;;9.85;4.60;;;;;;;5.34;67.79;100875.59;5075478;28;20513;-73
2023/01/26 05:02:52;;;;;;;10.65;4.75;;;;;;;5.31;68.58;100886.09;5057244;28;20043;-73
2023/01/26 05:05:20;;;;;;;8.50;4.00;;;;;;;5.35;69.42;100882.69;5057151;28;20370;-73
2023/01/26 05:07:49;;;;;;;8.68;4.20;;;;;;;5.29;68.88;100875.50;5057408;28;20386;-74
2023/01/26 05:10:18;;;;;;;5.72;3.90;;;;;;;5.34;69.06;100875.59;5057438;28;20045;-73
2023/01/26 05:13:09;;;;;;;7.97;3.92;;;;;;;5.14;68.71;100872.41;5064439;28;20402;-74
2023/01/26 05:16:03;;;;;;;10.18;4.60;;;;;;;5.03;68.82;100868.66;5056926;28;20048;-73
2023/01/26 05:18:49;;;;;;;9.00;4.65;;;;;;;5.30;68.86;100869.00;5075061;28;20475;-74
2023/01/26 05:21:28;;;;;;;8.80;4.43;;;;;;;5.19;69.68;100884.19;5057240;28;20044;-74
2023/01/26 05:23:56;;;;;;;11.07;4.25;;;;;;;5.19;69.25;100877.97;5056867;28;20055;-74
2023/01/26 05:26:37;;;;;;;7.65;3.90;;;;;;;5.34;67.47;100866.63;5053685;28;20053;-79
2023/01/26 05:29:09;;;;;;;8.20;4.18;;;;;;;5.37;68.82;100882.44;5037282;28;20056;-79
2023/01/26 05:31:37;;;;;;;10.40;4.45;;;;;;;5.56;68.26;100869.53;5061422;28;20048;-78
2023/01/26 05:34:06;;;;;;;9.30;4.38;;;;;;;5.32;67.91;100874.19;5074364;28;20037;-78
2023/01/26 05:36:35;;;;;;;8.38;4.72;;;;;;;5.25;67.40;100877.81;5056832;28;20537;-81
2023/01/26 05:39:03;;;;;;;7.30;3.85;;;;;;;5.16;68.43;100879.25;5056566;28;20059;-79
2023/01/26 05:41:32;;;;;;;8.63;4.13;;;;;;;5.25;68.00;100871.59;5073506;28;20526;-79
2023/01/26 05:44:17;;;;;;;8.88;4.30;;;;;;;5.27;68.54;100874.88;5071642;28;20059;-79
2023/01/26 05:46:50;;;;;;;7.45;4.82;;;;;;;5.36;68.33;100872.63;5056357;28;20410;-79
2023/01/26 05:49:18;;;;;;;10.68;4.60;;;;;;;5.41;70.08;100874.63;5055318;28;20060;-78
2023/01/26 05:51:46;;;;;;;7.60;4.00;;;;;;;5.34;67.45;100870.16;5055077;28;20044;-79
2023/01/26 05:54:14;;;;;;;7.97;4.30;;;;;;;5.34;69.01;100875.59;5056154;28;20147;-78
2023/01/26 05:56:42;;;;;;;8.48;3.95;;;;;;;5.29;68.86;100875.50;5073477;28;20064;-79
2023/01/26 05:59:10;;;;;;;10.93;4.63;;;;;;;5.31;68.83;100881.50;5055437;28;20395;-79
2023/01/26 06:01:41;;;;;;;11.95;4.00;;;;;;;5.30;68.34;100879.84;5051938;28;20519;-82
2023/01/26 06:04:10;;;;;;;9.80;4.53;;;;;;;5.41;67.93;100872.75;5055285;28;20048;-81
2023/01/26 06:06:47;;;;;;;10.43;4.75;;;;;;;5.36;69.74;100881.63;5054587;28;20052;-80
2023/01/26 06:09:22;;;;;;;10.35;4.22;;;;;;;5.46;68.63;100872.03;5050280;28;20422;-80
2023/01/26 06:12:16;;;;;;;9.02;4.22;;;;;;;5.40;68.07;100879.25;5051567;28;20068;-79
2023/01/26 06:14:57;;;;;;;8.85;4.43;;;;;;;5.52;69.63;100884.66;5054325;28;20478;-79
2023/01/26 06:17:45;;;;;;;9.48;4.30;;;;;;;5.38;69.01;100874.06;5054679;28;20052;-78
2023/01/26 06:20:14;;;;;;;6.68;4.15;;;;;;;5.48;68.46;100883.50;5054885;28;20040;-78
2023/01/26 06:22:50;;;;;;;8.85;4.18;;;;;;;5.50;68.54;100879.47;5055692;28;20045;-78
2023/01/26 06:25:18;;;;;;;9.45;4.90;;;;;;;5.63;66.58;100864.81;5038884;28;20053;-78
2023/01/26 06:27:46;;;;;;;6.28;3.65;;;;;;;5.62;66.75;100871.31;5054170;28;20037;-79
2023/01/26 06:30:25;;;;;;;8.40;4.15;;;;;;;5.63;68.01;100877.56;5051530;28;20049;-79
2023/01/26 06:32:57;;;;;;;8.50;4.50;;;;;;;5.62;68.89;100870.50;5054112;28;20064;-79
2023/01/26 06:35:28;;;;;;;9.45;4.68;;;;;;;5.59;68.42;100870.97;5054900;28;20056;-79
2023/01/26 06:38:01;;;;;;;12.25;4.72;;;;;;;5.45;68.42;100862.25;5054627;28;20048;-79
2023/01/26 06:40:29;;;;;;;10.52;4.07;;;;;;;5.40;69.61;100860.25;5048828;28;20033;-78
2023/01/26 06:42:57;;;;;;;11.13;4.47;;;;;;;5.51;69.82;100859.41;5061504;28;20052;-78
2023/01/26 06:45:25;;;;;;;12.75;5.03;;;;;;;5.50;67.96;100856.94;5055272;28;20067;-74
2023/01/26 06:47:54;;;;;;;8.57;4.20;;;;;;;5.72;67.88;100861.72;5086122;28;20099;-72
2023/01/26 06:50:30;;;;;;;9.15;5.13;;;;;;;5.41;67.69;100861.06;5054883;28;20490;-73
2023/01/26 06:53:01;;;;;;;10.35;4.55;;;;;;;5.55;67.07;100861.63;5054080;28;20479;-73
2023/01/26 06:55:40;;;;;;;7.18;4.20;;;;;;;5.50;67.53;100851.50;5054902;28;20054;-73
2023/01/26 06:58:27;;;;;;;9.50;5.10;;;;;;;5.46;68.99;100861.16;5054281;28;20052;-73
2023/01/26 07:01:19;;;;;;;10.70;4.50;;;;;;;5.52;66.62;100852.06;5072840;28;20390;-73
2023/01/26 07:03:48;;;;;;;9.82;5.13;;;;;;;5.58;67.79;100859.25;5072900;28;20051;-74
2023/01/26 07:06:16;;;;;;;7.10;4.53;;;;;;;5.57;66.76;100857.63;5072436;28;20727;-73
2023/01/26 07:08:44;;;;;;;13.70;5.13;;;;;;;5.56;67.19;100845.09;5072284;28;20079;-73
2023/01/26 07:11:13;;;;;;;10.05;4.57;;;;;;;5.71;67.12;100847.31;5071161;28;20044;-73
2023/01/26 07:13:41;;;;;;;8.98;4.65;;;;;;;5.59;67.11;100851.94;5072217;28;20055;-73
2023/01/26 07:16:11;;;;;;;14.80;5.57;;;;;;;5.73;67.05;100850.59;5072063;28;20048;-74
2023/01/26 07:18:40;;;;;;;11.48;4.50;;;;;;;5.77;67.61;100850.97;5071695;28;20079;-73
2023/01/26 07:21:19;;;;;;;7.45;4.57;;;;;;;5.88;66.03;100852.81;5053867;28;20049;-73
2023/01/26 07:23:47;;;;;;;10.20;4.38;;;;;;;6.12;65.57;100854.66;5071583;28;20048;-73
2023/01/26 07:26:16;;;;;;;8.80;4.20;;;;;;;5.88;64.87;100857.41;5071523;28;20045;-73
2023/01/26 07:28:44;;;;;;;10.05;5.00;;;;;;;5.88;65.54;100858.22;5071008;28;20059;-73
2023/01/26 07:31:12;;;;;;;10.15;5.20;;;;;;;5.84;65.33;100857.09;5071314;28;20052;-73
2023/01/26 07:33:40;;;;;;;8.73;4.78;;;;;;;5.81;64.27;100856.75;5072016;28;20063;-74
2023/01/26 07:36:09;;;;;;;8.68;4.38;;;;;;;5.92;64.92;100864.84;5070995;28;20059;-73
2023/01/26 07:38:37;;;;;;;8.85;4.22;;;;;;;6.05;65.93;100861.06;5054468;28;20381;-73
2023/01/26 07:41:09;;;;;;;10.50;5.72;;;;;;;6.14;65.52;100864.22;5071387;28;20051;-73
2023/01/26 07:43:38;;;;;;;9.23;4.82;;;;;;;6.10;65.76;100854.88;5054206;28;20053;-73
2023/01/26 07:46:09;;;;;;;11.40;5.10;;;;;;;6.22;66.31;100857.56;5071414;28;20403;-73
2023/01/26 07:48:37;;;;;;;9.75;5.47;;;;;;;6.21;64.12;100868.66;5070843;28;20056;-73
2023/01/26 07:51:08;;;;;;;12.70;6.78;;;;;;;5.98;66.01;100856.78;5071405;28;20493;-74
2023/01/26 07:53:42;;;;;;;9.77;5.07;;;;;;;6.14;64.96;100864.22;5071545;28;20048;-75
2023/01/26 07:56:11;;;;;;;;;;;;;;;6.30;64.80;100857.16;5072214;28;20592;-74
2023/01/26 07:58:39;;;;;;;13.48;6.28;;;;;;;6.28;64.88;100850.31;5071453;28;19947;-74
2023/01/26 08:01:13;;;;;;;14.27;5.45;;;;;;;6.40;63.54;100851.06;5071960;28;20044;-74
2023/01/26 08:03:44;;;;;;;15.18;6.68;;;;;;;6.53;64.51;100854.53;5054057;28;20049;-74
2023/01/26 08:06:12;;;;;;;9.38;5.30;;;;;;;6.39;63.20;100854.03;5070920;28;20059;-74
2023/01/26 08:08:42;;;;;;;18.20;5.43;;;;;;;6.35;63.90;100850.97;5071222;28;20047;-73
2023/01/26 08:11:11;;;;;;;10.88;5.63;;;;;;;6.10;63.67;100838.56;5071283;28;20051;-73
2023/01/26 08:13:39;;;;;;;11.10;5.45;;;;;;;6.39;64.11;100849.44;5071414;28;20064;-73
2023/01/26 08:16:10;;;;;;;13.52;5.90;;;;;;;6.43;64.77;100849.75;5070871;28;20063;-74
2023/01/26 08:18:41;;;;;;;9.90;6.22;;;;;;;6.44;63.82;100848.69;5053782;28;20053;-73
2023/01/26 08:21:10;;;;;;;10.18;5.97;;;;;;;6.83;64.29;100845.22;5053223;28;20395;-73
2023/01/26 08:23:41;;;;;;;15.73;6.03;;;;;;;6.92;63.29;100842.91;5075384;28;20393;-73
2023/01/26 08:26:12;;;;;;;11.15;6.07;;;;;;;6.61;62.92;100843.28;5074433;28;20068;-73
2023/01/26 08:28:40;;;;;;;12.27;6.05;;;;;;;6.81;64.54;100848.22;5057345;28;20520;-73
2023/01/26 08:31:19;;;;;;;12.18;6.43;;;;;;;6.86;64.24;100848.28;5057148;28;20052;-73
2023/01/26 08:33:53;;;;;;;20.70;8.68;;;;;;;6.77;63.81;100851.66;5075737;28;20043;-73
2023/01/26 08:36:21;;;;;;;14.80;8.75;;;;;;;6.96;62.49;100850.34;5074845;28;20057;-75
2023/01/26 08:38:51;;;;;;;25.25;10.40;;;;;;;7.03;63.58;100860.25;5072556;28;20044;-75
2023/01/26 08:41:19;;;;;;;15.73;7.07;;;;;;;6.71;63.31;100859.75;5073720;28;20521;-75
2023/01/26 08:43:46;;;;;;;13.68;5.72;;;;;;;7.05;63.88;100856.19;5073673;28;20041;-75
2023/01/26 08:46:14;;;;;;;13.95;6.03;;;;;;;7.05;62.79;100861.66;5074078;28;20487;-74
2023/01/26 08:48:42;;;;;;;12.77;6.03;;;;;;;6.82;63.73;100859.91;5075272;28;20049;-74
2023/01/26 08:51:10;;;;;;;13.55;6.28;;;;;;;7.01;62.10;100865.09;5073800;28;20044;-74
2023/01/26 08:53:38;;;;;;;11.07;6.18;;;;;;;6.95;61.46;100864.19;5073927;28;20051;-74
2023/01/26 08:56:09;;;;;;;26.13;11.38;;;;;;;7.19;61.32;100864.81;5074031;28;20052;-75
2023/01/26 08:58:37;;;;;;;14.00;6.95;;;;;;;7.26;60.99;100865.50;5057147;28;20434;-74
2023/01/26 09:01:07;;;;;;;13.38;6.88;;;;;;;7.21;61.91;100862.69;5075105;28;20056;-74
2023/01/26 09:03:35;;;;;;;14.18;7.13;;;;;;;6.98;62.67;100864.53;5074357;28;20458;-74
2023/01/26 09:06:04;;;;;;;13.80;7.43;;;;;;;7.16;60.91;100862.63;5074039;28;20056;-74
2023/01/26 09:08:32;;;;;;;17.75;8.00;;;;;;;6.90;62.11;100867.69;5073832;28;20055;-74
2023/01/26 09:11:00;;;;;;;14.32;7.07;;;;;;;7.28;62.53;100867.13;5074022;28;20376;-74
2023/01/26 09:13:28;;;;;;;14.18;6.63;;;;;;;7.39;58.75;100869.72;5074297;28;20045;-74
2023/01/26 09:15:56;;;;;;;11.45;6.03;;;;;;;7.28;60.75;100864.41;5074204;28;20509;-74
2023/01/26 09:18:24;;;;;;;10.50;6.07;;;;;;;7.38;60.35;100872.72;5074132;28;20506;-74
2023/01/26 09:20:52;;;;;;;14.27;6.22;;;;;;;7.20;61.06;100863.78;5074961;28;20048;-74
2023/01/26 09:23:20;;;;;;;14.60;7.05;;;;;;;7.03;60.72;100871.94;5074526;28;20047;-74
2023/01/26 09:25:52;;;;;;;14.95;8.13;;;;;;;7.49;59.67;100866.31;5073248;28;20491;-74
2023/01/26 09:28:20;;;;;;;15.02;6.85;;;;;;;7.51;60.90;100876.97;5074359;28;20505;-74
2023/01/26 09:30:47;;;;;;;15.32;7.40;;;;;;;7.55;60.66;100860.94;5072923;28;20498;-74
2023/01/26 09:33:16;;;;;;;13.85;7.10;;;;;;;7.91;59.30;100869.56;5072848;28;20064;-74
2023/01/26 09:35:43;;;;;;;11.13;6.63;;;;;;;8.11;58.69;100873.59;5072646;28;20056;-74
2023/01/26 09:38:11;;;;;;;13.73;7.07;;;;;;;8.16;56.80;100874.47;5073369;28;20491;-74
2023/01/26 09:41:00;;;;;;;14.10;7.15;;;;;;;8.60;56.85;100867.28;5073487;28;20540;-74
2023/01/26 09:43:50;;;;;;;13.48;6.53;;;;;;;8.86;55.39;100871.03;5055795;28;20063;-75
2023/01/26 09:46:33;;;;;;;11.80;5.40;;;;;;;9.35;53.16;100860.16;5073275;28;20059;-75
2023/01/26 09:49:09;;;;;;;12.88;5.80;;;;;;;9.52;51.08;100873.63;5073401;28;20048;-75
2023/01/26 09:51:41;;;;;;;11.85;6.10;;;;;;;9.75;50.12;100866.91;5056143;28;20041;-75
2023/01/26 09:54:30;;;;;;;11.00;5.85;;;;;;;10.25;49.40;100866.50;5073616;28;20048;-75
2023/01/26 09:57:01;;;;;;;14.00;6.97;;;;;;;10.68;50.59;100860.84;5073854;28;20045;-75
2023/01/26 09:59:47;;;;;;;11.18;6.32;;;;;;;10.51;48.27;100861.09;5072999;28;20056;-75
2023/01/26 10:02:29;;;;;;;11.18;6.70;;;;;;;10.69;48.11;100856.16;5073975;28;20048;-75
2023/01/26 10:05:03;;;;;;;13.93;6.50;;;;;;;10.55;50.26;100850.44;5056030;28;20041;-75
2023/01/26 10:07:32;;;;;;;12.63;6.78;;;;;;;9.94;49.00;100855.50;5073012;28;20044;-75
2023/01/26 10:10:01;;;;;;;12.02;6.93;;;;;;;10.03;49.27;100844.84;5072814;28;20044;-75
2023/01/26 10:12:34;;;;;;;14.30;7.75;;;;;;;9.66;50.74;100852.13;5072905;28;20045;-75
2023/01/26 10:15:07;;;;;;;13.60;6.75;;;;;;;9.30;52.16;100841.00;5072876;28;20071;-75
2023/01/26 10:17:39;;;;;;;12.40;6.82;;;;;;;9.63;52.00;100848.00;5072914;28;20052;-75
2023/01/26 10:20:28;;;;;;;14.15;7.57;;;;;;;10.21;51.40;100832.56;5072716;28;20052;-75
2023/01/26 10:23:03;;;;;;;13.35;7.57;;;;;;;10.41;51.07;100840.00;5072779;28;20044;-75
2023/01/26 10:25:35;;;;;;;17.27;7.20;;;;;;;10.51;50.03;100831.00;5056179;28;20041;-75
2023/01/26 10:28:14;;;;;;;10.98;6.88;;;;;;;10.28;51.51;100832.31;5072660;28;20048;-75
2023/01/26 10:30:44;;;;;;;11.27;6.57;;;;;;;10.38;49.27;100829.59;5072487;28;20079;-75
2023/01/26 10:33:32;;;;;;;12.40;6.82;;;;;;;9.95;51.25;100825.16;5072670;28;20494;-75
2023/01/26 10:36:01;;;;;;;13.48;6.75;;;;;;;10.40;50.11;100813.72;5070516;28;20083;-74
2023/01/26 10:38:32;;;;;;;13.07;6.65;;;;;;;10.58;48.22;100811.56;5071996;28;20052;-75
2023/01/26 10:41:05;;;;;;;13.43;7.15;;;;;;;10.02;49.79;100813.16;5070734;28;20053;-75
2023/01/26 10:43:40;;;;;;;11.77;6.57;;;;;;;10.46;49.13;100809.13;5071373;28;20056;-75
2023/01/26 10:46:28;;;;;;;15.55;7.60;;;;;;;10.50;50.00;100812.13;5071809;28;20057;-73
2023/01/26 10:49:07;;;;;;;12.75;6.82;;;;;;;10.64;48.03;100806.94;5048418;28;20398;-73
2023/01/26 10:51:38;;;;;;;11.93;6.30;;;;;;;10.87;48.55;100800.06;5072058;28;20052;-73
2023/01/26 10:54:26;;;;;;;16.50;6.72;;;;;;;10.97;48.09;100789.09;5072215;28;20383;-74
2023/01/26 10:57:13;;;;;;;12.07;6.75;;;;;;;10.57;48.69;100788.03;5071764;28;20053;-74
2023/01/26 10:59:59;;;;;;;11.02;6.32;;;;;;;10.72;47.95;100785.28;5071592;28;20049;-74
2023/01/26 11:02:29;;;;;;;14.13;6.80;;;;;;;11.04;47.75;100779.75;5072925;28;20052;-74
2023/01/26 11:05:12;;;;;;;12.40;7.25;;;;;;;10.53;47.57;100779.56;5071756;28;20052;-74
2023/01/26 11:07:43;;;;;;;15.38;6.97;;;;;;;10.53;50.91;100781.47;5072738;28;20051;-74
2023/01/26 11:10:26;;;;;;;12.95;7.35;;;;;;;10.36;49.58;100771.59;5071734;28;20059;-74
2023/01/26 11:13:07;;;;;;;13.57;7.00;;;;;;;10.09;48.46;100770.75;5071722;28;20045;-74
2023/01/26 11:15:40;;;;;;;14.70;6.85;;;;;;;9.93;50.38;100752.72;5071894;28;20059;-74
2023/01/26 11:18:14;;;;;;;13.27;6.90;;;;;;;9.75;49.97;100759.50;5071483;28;20059;-74
2023/01/26 11:20:48;;;;;;;12.40;7.35;;;;;;;9.51;51.11;100749.06;5072465;28;20056;-73
2023/01/26 11:23:23;;;;;;;15.32;7.22;;;;;;;9.32;51.62;100735.88;5071722;28;20059;-74
2023/01/26 11:26:06;;;;;;;16.77;7.55;;;;;;;9.20;51.03;100738.03;5071035;28;20055;-74
2023/01/26 11:28:44;;;;;;;13.95;6.93;;;;;;;9.04;50.89;100728.94;5072396;28;20044;-74
2023/01/26 11:31:27;;;;;;;16.05;8.27;;;;;;;9.01;52.66;100733.03;5071623;28;20051;-73
2023/01/26 11:34:09;;;;;;;16.48;7.40;;;;;;;8.94;52.13;100729.72;5071085;28;20048;-73
2023/01/26 11:36:51;;;;;;;16.77;7.20;;;;;;;8.99;51.37;100718.81;5070836;28;20048;-74
2023/01/26 11:40:04;;;;;;;13.68;6.63;;;;;;;8.93;52.70;100717.97;5071491;28;20410;-74
2023/01/26 11:42:55;;;;;;;14.35;7.47;;;;;;;8.96;52.83;100719.34;5068932;28;20063;-74
2023/01/26 11:45:37;;;;;;;11.73;7.57;;;;;;;9.07;53.38;100696.47;5061585;28;20059;-74
2023/01/26 11:48:08;;;;;;;12.50;6.57;;;;;;;8.86;52.70;100707.28;5072288;28;20372;-74
2023/01/26 11:50:49;;;;;;;12.52;6.65;;;;;;;8.52;53.53;100707.66;5071856;28;20056;-74
2023/01/26 11:53:25;;;;;;;14.57;7.78;;;;;;;8.56;53.11;100691.59;5071380;28;20084;-74
2023/01/26 11:56:03;;;;;;;12.05;6.82;;;;;;;8.60;53.64;100688.06;5071152;28;20605;-73
2023/01/26 11:58:31;;;;;;;16.02;7.15;;;;;;;8.51;54.07;100689.59;5070909;28;20056;-74
2023/01/26 12:01:03;;;;;;;14.88;7.68;;;;;;;8.52;53.28;100683.09;5070860;28;20052;-73
2023/01/26 12:03:46;;;;;;;15.77;7.68;;;;;;;8.37;54.44;100677.50;5054746;28;20506;-75
2023/01/26 12:06:25;;;;;;;13.80;7.30;;;;;;;8.55;54.51;100668.13;5072044;28;20498;-74
2023/01/26 12:09:35;;;;;;;12.88;6.45;;;;;;;8.38;55.04;100655.44;5072030;28;20297;-73
2023/01/26 12:12:27;;;;;;;12.77;6.22;;;;;;;8.41;55.72;100648.63;5070926;28;20059;-74
2023/01/26 12:15:17;;;;;;;14.90;7.07;;;;;;;8.72;55.28;100651.56;5070897;28;20049;-74
2023/01/26 12:17:58;;;;;;;13.82;6.57;;;;;;;8.49;54.72;100648.13;5071037;28;20053;-74
2023/01/26 12:20:49;;;;;;;13.18;7.47;;;;;;;8.70;55.70;100640.91;5071171;28;20052;-74
2023/01/26 12:23:24;;;;;;;13.73;7.50;;;;;;;8.87;53.60;100638.00;5070398;28;20525;-74
2023/01/26 12:25:57;;;;;;;12.32;6.88;;;;;;;9.16;55.39;100641.34;5071048;28;20056;-74
2023/01/26 12:28:33;;;;;;;14.52;7.38;;;;;;;9.56;50.69;100628.84;5070610;28;20056;-74
2023/01/26 12:31:11;;;;;;;16.02;7.60;;;;;;;9.70;50.56;100622.84;5063467;28;20068;-74
2023/01/26 12:33:40;;;;;;;11.57;6.60;;;;;;;9.90;53.03;100627.50;5070761;28;20053;-74
2023/01/26 12:36:25;;;;;;;14.57;7.22;;;;;;;9.58;55.17;100621.19;5069715;28;20494;-74
2023/01/26 12:39:19;;;;;;;21.75;7.57;;;;;;;10.08;54.07;100617.91;5071836;28;20060;-75
2023/01/26 12:42:27;;;;;;;21.23;7.20;;;;;;;10.08;52.51;100612.47;5052851;28;20037;-73
2023/01/26 12:45:35;;;;;;;12.75;6.95;;;;;;;9.93;56.67;100608.63;5070013;28;20048;-73